• Join FlightAware (Why Join?)
  • Login
  • US Flag 
11:35PM EDT


 

Airport Tracker/Info


-or-


 

Live Flight TrackerFlight Track Log ✈ ASQ5740 ✈ 05-Jun-2013 ✈ KCHS - KIAD

Flight Track Log - Related Links

Times and Time Zones

All times are in EDT time to prevent confusion due to time zone crossing. See the ASQ5740 flight status page for this flight to view local times or setup timezone preferences in your user account.

Time Position Orientation Groundspeed Altitude Reporting Facility
EDT Latitude Longitude Course Direction KTS MPH feet Rate Location/Type
02:42PM 33.0031 -80.0564 13° North 242 278 3,900  Level Jacksonville Center
02:43PM 33.0747 -80.0814 344° North 263 303 6,000 2,160 Climbing Jacksonville Center
02:44PM 33.2620 -79.9243 North  Level FlightAware Approximate
02:44PM 33.1461 -80.1017 347° North 279 321 8,300  Level Jacksonville Center
02:45PM 33.3547 -79.8893 23° Northeast  Level FlightAware Approximate
02:45PM 33.2278 -80.1214 349° North 291 335 10,100  Level Jacksonville Center
02:46PM 33.4504 -79.8665 13° North  Level FlightAware Approximate
02:46PM 33.3197 -80.1161 North 303 349 11,200  Level Jacksonville Center
02:47PM 33.5456 -79.8394 13° North  Level FlightAware Approximate
02:47PM 33.4106 -80.0708 23° Northeast 322 371 12,600  Level Jacksonville Center
02:48PM 33.6408 -79.8122 13° North  Level FlightAware Approximate
02:48PM 33.5011 -80.0133 28° Northeast 341 392 14,000  Level Jacksonville Center
02:49PM 33.5933 -79.9503 30° Northeast 360 414 15,400 1,440 Climbing Jacksonville Center
02:50PM 33.6881 -79.8872 29° Northeast 371 427 16,900 1,380 Climbing Jacksonville Center
02:51PM 33.7911 -79.8414 20° North 376 433 18,200 1,260 Climbing Jacksonville Center
02:52PM 33.8944 -79.8003 18° North 381 438 19,500 1,320 Climbing Jacksonville Center
02:53PM 33.9936 -79.7567 20° North 381 438 20,900 1,200 Climbing Jacksonville Center
02:54PM 34.0947 -79.7153 19° North 381 438 22,000 1,020 Climbing Jacksonville Center
02:55PM 34.1958 -79.6742 19° North 381 438 23,000 780 Climbing Jacksonville Center
02:58PM 34.4294 -79.5550 23° Northeast 381 438 24,700 660 Climbing Washington Center
02:59PM 34.5231 -79.5067 23° Northeast 387 445 25,300 540 Climbing Washington Center
03:00PM 34.6269 -79.4511 24° Northeast 398 458 25,900 600 Climbing Washington Center
03:01PM 34.7331 -79.3956 23° Northeast 406 467 26,600 540 Climbing Washington Center
03:02PM 34.8422 -79.3778 North 406 467 27,000 180 Climbing Washington Center
03:03PM 34.9469 -79.4283 338° Northwest 384 442 27,000  Level Washington Center
03:04PM 35.0494 -79.4839 336° Northwest 384 442 27,000  Level Washington Center
03:05PM 35.1583 -79.5400 337° Northwest 389 448 27,000  Level Washington Center
03:06PM 35.2608 -79.5933 337° Northwest 394 453 27,000  Level Washington Center
03:07PM 35.3686 -79.6164 350° North 383 441 27,000  Level Washington Center
03:08PM 35.4692 -79.5347 33° Northeast 367 422 27,000  Level Washington Center
03:09PM 35.5722 -79.4506 34° Northeast 396 456 27,000  Level Washington Center
03:10PM 35.6728 -79.3686 33° Northeast 421 484 27,000  Level Washington Center
03:11PM 35.7758 -79.2839 34° Northeast 433 498 27,000  Level Washington Center
03:12PM 35.8806 -79.2014 33° Northeast 438 504 27,000  Level Washington Center
03:13PM 35.9831 -79.1189 33° Northeast 443 510 27,000  Level Washington Center
03:14PM 36.0856 -79.0361 33° Northeast 443 510 27,000  Level Washington Center
03:15PM 36.1881 -78.9531 33° Northeast 443 510 27,000  Level Washington Center
03:16PM 36.2950 -78.8650 34° Northeast 448 516 27,000  Level Washington Center
03:17PM 36.3844 -78.7914 34° Northeast 448 516 27,000  Level Washington Center
03:18PM 36.4869 -78.7050 34° Northeast 448 516 27,000 -60 Level Washington Center
03:19PM 36.5872 -78.6211 34° Northeast 443 510 26,900 -780 Descending Washington Center
03:20PM 36.6917 -78.5319 34° Northeast 443 510 25,500 -1,320 Descending Washington Center
03:21PM 36.7875 -78.4550 33° Northeast 433 498 24,300 -1,380 Descending Washington Center
03:22PM 36.8822 -78.4197 17° North 372 428 22,900 -1,200 Descending Washington Center
03:23PM 36.9789 -78.3919 13° North 361 415 22,000 -480 Descending Washington Center
03:24PM 37.0358 -78.2744 59° Northeast 334 384 22,000  Level Washington Center
03:25PM 37.1106 -78.1858 43° Northeast 345 397 22,000  Level Washington Center
03:26PM 37.1872 -78.1233 33° Northeast 350 403 22,000  Level Washington Center
03:27PM 37.2742 -78.0506 34° Northeast 362 417 22,000  Level Washington Center
03:28PM 37.3569 -77.9772 35° Northeast 367 422 22,000  Level Washington Center
03:29PM 37.4419 -77.9042 34° Northeast 372 428 22,000  Level Washington Center
03:30PM 37.5267 -77.8308 34° Northeast 367 422 22,000 -180 Level Washington Center
03:31PM 37.6175 -77.7758 26° Northeast 362 417 21,700 -1,140 Descending Washington Center
03:32PM 37.7081 -77.7233 25° Northeast 357 411 19,800 -1,920 Descending Washington Center
03:33PM 37.7944 -77.6731 25° Northeast 342 394 18,000 -1,680 Descending Washington Center
03:34PM 37.8767 -77.6228 26° Northeast 331 381 16,500 -1,620 Descending Washington Center
03:35PM 37.9567 -77.5775 24° Northeast 321 369 14,800 -1,740 Descending Washington Center
03:36PM 38.0325 -77.5319 25° Northeast 302 348 13,100 -1,800 Descending Washington Center
03:37PM 38.1125 -77.4892 23° Northeast 302 348 11,300 -1,620 Descending Washington Center
03:38PM 38.1881 -77.4436 25° Northeast 302 348 10,000 -600 Descending Washington Center
03:39PM 38.2597 -77.4003 25° Northeast 297 342 10,100 -60 Climbing Washington Center
03:40PM 38.3353 -77.3600 23° Northeast 297 342 9,900 -900 Descending Washington Center
03:41PM 38.4147 -77.3592 360° North 286 329 8,300 -1,560 Descending Washington Center
03:42PM 38.4917 -77.3636 357° North 276 318 6,800 -1,500 Descending Washington Center
03:43PM 38.5667 -77.3681 357° North 271 312 5,300 -900 Descending Washington Center
03:44PM 38.6419 -77.3644 North 271 312 5,100 -540 Descending Washington Center
03:45PM 38.7189 -77.3639 360° North 271 312 4,300 -360 Descending Washington Center
03:47PM 38.9000 -77.3500 North 257 296 4,100 -300 Descending Potomac TRACON
03:48PM 38.9667 -77.3500 360° North 269 310 3,500 -540 Descending Potomac TRACON
03:49PM 39.0333 -77.3500 360° North 238 274 3,100 -780 Descending Potomac TRACON
03:50PM 39.0833 -77.4000 322° Northwest 230 265 2,000 -1,020 Descending Potomac TRACON